LTBY Airport Information

Runway Information
Runway 09 Length 8261 ft width 98 ft
Elevation 2593 ft Threshold 0 ft Heading 93
Runway 27 Length 8261 ft Width 98 ft
Elevation 2580 ft Threshold 0 ft Heading 273
Airport Frequencies
Type TWR Name TWR Frequency 123.75 MHZ
Airport Navaids
Type VOR-DME Name Eskisehir Frequency 108200 KHZ
Type NDB Name Eskisehir Frequency 372 KHZ
Airport Weather Information & NOTAM
ADDS - METARS form results

(2010 UTC 22 July 2018)
 
METAR text: LTBY 221950Z 25003KT 210V310 CAVOK 20/15 Q1013
Conditions at: LTBY (ANADOLU , TR) observed 1950 UTC 22 July 2018
Temperature: 20.0°C (68°F)
Dewpoint: 15.0°C (59°F) [RH = 73%]
Pressure (altimeter): 29.91 inches Hg (1013.0 mb)
Winds: from the WSW (250 degrees) at 3 MPH (3 knots; 1.6 m/s)
Visibility: 6 or more miles (10+ km)
Ceiling: ceiling and visibility are OK
Clouds: unknown
Weather: no significant weather observed at this time